Bluffdale, Utah
Current Conditions -  °F | °C
As of 8:53 AM on Wednesday 28 Jan 2015 (Local Time) from KSLC Reporting Station
Broken Clouds Broken Clouds  
Wind Chill: 41°   Ceiling: 4400
Heat Index: 41°   Visibility: 10mi
Dew Point: 38°   Wind: 3mph
Humidity: 89%   Direction: 260°W
Pressure: 30.27"   Gusts: NA
Location:  40.5353°N, 111.962°W
Report Text: KSLC 281553Z 26003KT 10SM BKN044 BKN060 BKN080 05/03 A3027 RMK AO2 SLP249 SH DSNT NE T00500033
Loading
Personal Weather Stations






























Interactive Weather Map New forecast layout! Learn more

10-Day Weather Forecast

Advertisements
Track Severe Weather on mobile